sensor_id;sensor_type;location;lat;lon;timestamp;pressure;altitude;pressure_sealevel;temperature;humidity
11017;BME280;54687;50.800;6.772;2024-01-16T00:01:16;100073.28;;;-144.06;61.53
11017;BME280;54687;50.800;6.772;2024-01-16T00:03:43;100056.31;;;-144.06;61.81
11017;BME280;54687;50.800;6.772;2024-01-16T00:06:10;100073.28;;;-144.06;61.98
11017;BME280;54687;50.800;6.772;2024-01-16T00:08:38;99992.72;;;-144.06;62.20
11017;BME280;54687;50.800;6.772;2024-01-16T00:11:06;100075.41;;;-144.06;61.91
11017;BME280;54687;50.800;6.772;2024-01-16T00:13:33;100009.69;;;-144.06;62.43
11017;BME280;54687;50.800;6.772;2024-01-16T00:16:01;100052.09;;;-144.06;62.41
11017;BME280;54687;50.800;6.772;2024-01-16T00:18:29;100018.16;;;-144.06;62.01
11017;BME280;54687;50.800;6.772;2024-01-16T00:20:55;100035.13;;;-144.06;62.17
11017;BME280;54687;50.800;6.772;2024-01-16T00:23:21;99996.97;;;-144.06;62.85
11017;BME280;54687;50.800;6.772;2024-01-16T00:25:48;100066.94;;;-144.06;62.51
11017;BME280;54687;50.800;6.772;2024-01-16T00:28:17;100052.09;;;-144.06;62.61
11017;BME280;54687;50.800;6.772;2024-01-16T00:30:45;100075.41;;;-144.06;62.46
11017;BME280;54687;50.800;6.772;2024-01-16T00:33:12;100064.81;;;-144.06;62.50
11017;BME280;54687;50.800;6.772;2024-01-16T00:35:42;100064.81;;;-144.06;62.03
11017;BME280;54687;50.800;6.772;2024-01-16T00:38:09;100022.41;;;-144.06;62.21
11017;BME280;54687;50.800;6.772;2024-01-16T00:40:36;100066.94;;;-144.06;62.12
11017;BME280;54687;50.800;6.772;2024-01-16T00:43:03;100071.16;;;-144.06;62.01
11017;BME280;54687;50.800;6.772;2024-01-16T00:45:31;100071.16;;;-144.06;61.72
11017;BME280;54687;50.800;6.772;2024-01-16T00:47:58;100083.88;;;-144.06;62.04
11017;BME280;54687;50.800;6.772;2024-01-16T00:50:25;100056.31;;;-144.06;61.91
11017;BME280;54687;50.800;6.772;2024-01-16T00:52:52;100026.66;;;-144.06;62.06
11017;BME280;54687;50.800;6.772;2024-01-16T00:55:19;100069.03;;;-144.06;61.81
11017;BME280;54687;50.800;6.772;2024-01-16T00:57:46;100056.31;;;-144.06;61.46
11017;BME280;54687;50.800;6.772;2024-01-16T01:00:13;100090.25;;;-144.06;61.15
11017;BME280;54687;50.800;6.772;2024-01-16T01:02:41;100037.25;;;-144.06;61.29
11017;BME280;54687;50.800;6.772;2024-01-16T01:05:09;100052.09;;;-144.06;61.34
11017;BME280;54687;50.800;6.772;2024-01-16T01:07:36;100122.06;;;-144.06;61.53
11017;BME280;54687;50.800;6.772;2024-01-16T01:10:03;100043.59;;;-144.06;61.05
11017;BME280;54687;50.800;6.772;2024-01-16T01:12:31;100079.66;;;-144.06;61.03
11017;BME280;54687;50.800;6.772;2024-01-16T01:14:58;100081.78;;;-144.06;61.07
11017;BME280;54687;50.800;6.772;2024-01-16T01:17:26;100069.03;;;-144.06;61.06
11017;BME280;54687;50.800;6.772;2024-01-16T01:19:55;100075.41;;;-144.06;60.94
11017;BME280;54687;50.800;6.772;2024-01-16T01:22:22;100069.03;;;-144.06;60.91
11017;BME280;54687;50.800;6.772;2024-01-16T01:24:50;100081.78;;;-144.06;61.28
11017;BME280;54687;50.800;6.772;2024-01-16T01:27:18;100086.00;;;-144.06;60.85
11017;BME280;54687;50.800;6.772;2024-01-16T01:29:46;100045.72;;;-144.06;61.08
11017;BME280;54687;50.800;6.772;2024-01-16T01:32:14;100090.25;;;-144.06;60.70
11017;BME280;54687;50.800;6.772;2024-01-16T01:34:43;100115.69;;;-144.06;60.95
11017;BME280;54687;50.800;6.772;2024-01-16T01:37:11;100083.88;;;-144.06;61.56
11017;BME280;54687;50.800;6.772;2024-01-16T01:39:41;100069.03;;;-144.06;62.25
11017;BME280;54687;50.800;6.772;2024-01-16T01:42:08;99999.09;;;-144.06;62.23
11017;BME280;54687;50.800;6.772;2024-01-16T01:44:39;100009.69;;;-144.06;63.04
11017;BME280;54687;50.800;6.772;2024-01-16T01:47:08;100056.31;;;-144.06;63.13
11017;BME280;54687;50.800;6.772;2024-01-16T01:49:37;100102.97;;;-144.06;63.57
11017;BME280;54687;50.800;6.772;2024-01-16T01:52:05;100069.03;;;-144.06;63.79
11017;BME280;54687;50.800;6.772;2024-01-16T01:54:36;100049.97;;;-144.06;64.09
11017;BME280;54687;50.800;6.772;2024-01-16T01:57:07;100056.31;;;-144.06;63.78
11017;BME280;54687;50.800;6.772;2024-01-16T01:59:35;100069.03;;;-144.06;64.23
11017;BME280;54687;50.800;6.772;2024-01-16T02:02:04;100073.28;;;-144.06;63.96
11017;BME280;54687;50.800;6.772;2024-01-16T02:04:35;100073.28;;;-144.06;64.06
11017;BME280;54687;50.800;6.772;2024-01-16T02:07:04;100073.28;;;-144.06;64.13
11017;BME280;54687;50.800;6.772;2024-01-16T02:09:31;100043.59;;;-144.06;63.81
11017;BME280;54687;50.800;6.772;2024-01-16T02:12:00;100069.03;;;-144.06;63.76
11017;BME280;54687;50.800;6.772;2024-01-16T02:14:28;100086.00;;;-144.06;63.71
11017;BME280;54687;50.800;6.772;2024-01-16T02:16:56;100077.53;;;-144.06;63.37
11017;BME280;54687;50.800;6.772;2024-01-16T02:19:22;100056.31;;;-144.06;63.34
11017;BME280;54687;50.800;6.772;2024-01-16T02:21:53;100102.97;;;-144.06;63.64
11017;BME280;54687;50.800;6.772;2024-01-16T02:24:22;100066.94;;;-144.06;63.69
11017;BME280;54687;50.800;6.772;2024-01-16T02:26:50;100090.25;;;-144.06;63.24
11017;BME280;54687;50.800;6.772;2024-01-16T02:29:20;100041.50;;;-144.06;63.03
11017;BME280;54687;50.800;6.772;2024-01-16T02:31:48;100056.31;;;-144.06;62.56
11017;BME280;54687;50.800;6.772;2024-01-16T02:34:16;100056.31;;;-144.06;62.37
11017;BME280;54687;50.800;6.772;2024-01-16T02:36:44;100060.56;;;-144.06;62.16
11017;BME280;54687;50.800;6.772;2024-01-16T02:39:10;100069.03;;;-144.06;61.95
11017;BME280;54687;50.800;6.772;2024-01-16T02:41:38;100079.66;;;-144.06;61.69
11017;BME280;54687;50.800;6.772;2024-01-16T02:44:05;100066.94;;;-144.06;61.46
11017;BME280;54687;50.800;6.772;2024-01-16T02:46:31;100047.84;;;-144.06;61.54
11017;BME280;54687;50.800;6.772;2024-01-16T02:48:59;100083.88;;;-144.06;61.41
11017;BME280;54687;50.800;6.772;2024-01-16T02:51:26;100045.72;;;-144.06;61.75
11017;BME280;54687;50.800;6.772;2024-01-16T02:53:53;100058.44;;;-144.06;61.31
11017;BME280;54687;50.800;6.772;2024-01-16T02:56:20;100077.53;;;-144.06;61.09
11017;BME280;54687;50.800;6.772;2024-01-16T02:58:48;100094.50;;;-144.06;61.14
11017;BME280;54687;50.800;6.772;2024-01-16T03:01:14;100035.13;;;-144.06;61.26
11017;BME280;54687;50.800;6.772;2024-01-16T03:03:42;100071.16;;;-144.06;61.19
11017;BME280;54687;50.800;6.772;2024-01-16T03:06:08;100047.84;;;-144.06;61.61
11017;BME280;54687;50.800;6.772;2024-01-16T03:08:35;100086.00;;;-144.06;61.10
11017;BME280;54687;50.800;6.772;2024-01-16T03:11:01;100052.09;;;-144.06;61.39
11017;BME280;54687;50.800;6.772;2024-01-16T03:13:28;100060.56;;;-144.06;61.53
11017;BME280;54687;50.800;6.772;2024-01-16T03:15:56;100058.44;;;-144.06;61.63
11017;BME280;54687;50.800;6.772;2024-01-16T03:18:23;100077.53;;;-144.06;61.49
11017;BME280;54687;50.800;6.772;2024-01-16T03:20:50;100005.44;;;-144.06;61.16
11017;BME280;54687;50.800;6.772;2024-01-16T03:23:16;100075.41;;;-144.06;61.98
11017;BME280;54687;50.800;6.772;2024-01-16T03:25:43;100039.38;;;-144.06;61.64
11017;BME280;54687;50.800;6.772;2024-01-16T03:28:10;100037.25;;;-144.06;61.98
11017;BME280;54687;50.800;6.772;2024-01-16T03:30:36;100090.25;;;-144.06;62.12
11017;BME280;54687;50.800;6.772;2024-01-16T03:33:04;100043.59;;;-144.06;62.34
11017;BME280;54687;50.800;6.772;2024-01-16T03:35:31;99971.53;;;-144.06;62.67
11017;BME280;54687;50.800;6.772;2024-01-16T03:37:58;99986.38;;;-144.06;63.05
11017;BME280;54687;50.800;6.772;2024-01-16T03:40:25;100071.16;;;-144.06;63.51
11017;BME280;54687;50.800;6.772;2024-01-16T03:42:51;100105.09;;;-144.06;63.94
11017;BME280;54687;50.800;6.772;2024-01-16T03:45:18;100054.22;;;-144.06;64.15
11017;BME280;54687;50.800;6.772;2024-01-16T03:47:44;100056.31;;;-144.06;64.14
11017;BME280;54687;50.800;6.772;2024-01-16T03:50:13;100077.53;;;-144.06;64.38
11017;BME280;54687;50.800;6.772;2024-01-16T03:52:39;100102.97;;;-144.06;64.87
11017;BME280;54687;50.800;6.772;2024-01-16T03:55:06;100098.72;;;-144.06;64.48
11017;BME280;54687;50.800;6.772;2024-01-16T03:57:33;100066.94;;;-144.06;63.86
11017;BME280;54687;50.800;6.772;2024-01-16T04:00:00;100105.09;;;-144.06;63.76
11017;BME280;54687;50.800;6.772;2024-01-16T04:02:26;100049.97;;;-144.06;63.86
11017;BME280;54687;50.800;6.772;2024-01-16T04:04:53;100086.00;;;-144.06;63.89
11017;BME280;54687;50.800;6.772;2024-01-16T04:07:23;100083.88;;;-144.06;64.10
11017;BME280;54687;50.800;6.772;2024-01-16T04:09:51;100069.03;;;-144.06;63.80
11017;BME280;54687;50.800;6.772;2024-01-16T04:12:18;100094.50;;;-144.06;64.33
11017;BME280;54687;50.800;6.772;2024-01-16T04:14:44;100064.81;;;-144.06;64.35
11017;BME280;54687;50.800;6.772;2024-01-16T04:17:11;100073.28;;;-144.06;64.04
11017;BME280;54687;50.800;6.772;2024-01-16T04:19:37;100041.50;;;-144.06;63.82
11017;BME280;54687;50.800;6.772;2024-01-16T04:22:04;100090.25;;;-144.06;63.67
11017;BME280;54687;50.800;6.772;2024-01-16T04:24:32;100086.00;;;-144.06;63.59
11017;BME280;54687;50.800;6.772;2024-01-16T04:26:59;100107.22;;;-144.06;63.64
11017;BME280;54687;50.800;6.772;2024-01-16T04:29:25;100071.16;;;-144.06;63.64
11017;BME280;54687;50.800;6.772;2024-01-16T04:31:52;100102.97;;;-144.06;63.76
11017;BME280;54687;50.800;6.772;2024-01-16T04:34:18;100102.97;;;-144.06;63.62
11017;BME280;54687;50.800;6.772;2024-01-16T04:36:45;100090.25;;;-144.06;63.78
11017;BME280;54687;50.800;6.772;2024-01-16T04:39:12;100092.38;;;-144.06;63.62
11017;BME280;54687;50.800;6.772;2024-01-16T04:41:40;100107.22;;;-144.06;63.70
11017;BME280;54687;50.800;6.772;2024-01-16T04:44:07;100094.50;;;-144.06;63.54
11017;BME280;54687;50.800;6.772;2024-01-16T04:46:33;100079.66;;;-144.06;63.20
11017;BME280;54687;50.800;6.772;2024-01-16T04:49:00;100052.09;;;-144.06;63.04
11017;BME280;54687;50.800;6.772;2024-01-16T04:51:27;100069.03;;;-144.06;63.08
11017;BME280;54687;50.800;6.772;2024-01-16T04:53:53;100077.53;;;-144.06;62.81
11017;BME280;54687;50.800;6.772;2024-01-16T04:56:20;100616.09;;;-144.06;62.99
11017;BME280;54687;50.800;6.772;2024-01-16T04:58:48;99831.59;;;-144.06;62.93
11017;BME280;54687;50.800;6.772;2024-01-16T05:01:15;100075.41;;;-144.06;62.69
11017;BME280;54687;50.800;6.772;2024-01-16T05:03:41;100083.88;;;-144.06;62.20
11017;BME280;54687;50.800;6.772;2024-01-16T05:06:12;100075.41;;;-144.06;62.36
11017;BME280;54687;50.800;6.772;2024-01-16T05:08:40;100111.44;;;-144.06;61.83
11017;BME280;54687;50.800;6.772;2024-01-16T05:11:06;100090.25;;;-144.06;61.85
11017;BME280;54687;50.800;6.772;2024-01-16T05:13:33;100083.88;;;-144.06;61.68
11017;BME280;54687;50.800;6.772;2024-01-16T05:16:01;100060.56;;;-144.06;61.19
11017;BME280;54687;50.800;6.772;2024-01-16T05:18:28;100111.44;;;-144.06;61.47
11017;BME280;54687;50.800;6.772;2024-01-16T05:20:54;100035.13;;;-144.06;60.92
11017;BME280;54687;50.800;6.772;2024-01-16T05:23:21;100083.88;;;-144.06;61.29
11017;BME280;54687;50.800;6.772;2024-01-16T05:25:48;100107.22;;;-144.06;60.95
11017;BME280;54687;50.800;6.772;2024-01-16T05:28:14;100001.22;;;-144.06;60.90
11017;BME280;54687;50.800;6.772;2024-01-16T05:30:41;100069.03;;;-144.06;61.38
11017;BME280;54687;50.800;6.772;2024-01-16T05:33:09;100077.53;;;-144.06;60.90
11017;BME280;54687;50.800;6.772;2024-01-16T05:35:36;100060.56;;;-144.06;60.92
11017;BME280;54687;50.800;6.772;2024-01-16T05:38:03;100102.97;;;-144.06;60.87
11017;BME280;54687;50.800;6.772;2024-01-16T05:40:30;100064.81;;;-144.06;60.74
11017;BME280;54687;50.800;6.772;2024-01-16T05:42:56;100030.88;;;-144.06;60.33
11017;BME280;54687;50.800;6.772;2024-01-16T05:45:23;100039.38;;;-144.06;60.21
11017;BME280;54687;50.800;6.772;2024-01-16T05:47:50;100058.44;;;-144.06;60.26
11017;BME280;54687;50.800;6.772;2024-01-16T05:50:18;100079.66;;;-144.06;60.31
11017;BME280;54687;50.800;6.772;2024-01-16T05:52:44;100073.28;;;-144.06;60.08
11017;BME280;54687;50.800;6.772;2024-01-16T05:55:11;100086.00;;;-144.06;60.26
11017;BME280;54687;50.800;6.772;2024-01-16T05:57:38;100090.25;;;-144.06;60.29
11017;BME280;54687;50.800;6.772;2024-01-16T06:00:06;100088.13;;;-144.06;60.24
11017;BME280;54687;50.800;6.772;2024-01-16T06:02:32;100079.66;;;-144.06;60.41
11017;BME280;54687;50.800;6.772;2024-01-16T06:04:59;100094.50;;;-144.06;60.01
11017;BME280;54687;50.800;6.772;2024-01-16T06:07:27;100096.63;;;-144.06;59.99
11017;BME280;54687;50.800;6.772;2024-01-16T06:09:53;100096.63;;;-144.06;60.46
11017;BME280;54687;50.800;6.772;2024-01-16T06:12:20;100073.28;;;-144.06;60.21
11017;BME280;54687;50.800;6.772;2024-01-16T06:14:47;100102.97;;;-144.06;60.01
11017;BME280;54687;50.800;6.772;2024-01-16T06:17:13;100064.81;;;-144.06;59.98
11017;BME280;54687;50.800;6.772;2024-01-16T06:19:40;100090.25;;;-144.06;59.67
11017;BME280;54687;50.800;6.772;2024-01-16T06:22:07;100064.81;;;-144.06;59.94
11017;BME280;54687;50.800;6.772;2024-01-16T06:24:35;100066.94;;;-144.06;59.77
11017;BME280;54687;50.800;6.772;2024-01-16T06:27:04;100064.81;;;-144.06;59.76
11017;BME280;54687;50.800;6.772;2024-01-16T06:29:31;100109.34;;;-144.06;60.00
11017;BME280;54687;50.800;6.772;2024-01-16T06:31:58;100081.78;;;-144.06;59.87
11017;BME280;54687;50.800;6.772;2024-01-16T06:34:24;99980.00;;;-144.06;59.64
11017;BME280;54687;50.800;6.772;2024-01-16T06:36:51;100102.97;;;-144.06;59.33
11017;BME280;54687;50.800;6.772;2024-01-16T06:39:17;100073.28;;;-144.06;59.59
11017;BME280;54687;50.800;6.772;2024-01-16T06:41:45;100075.41;;;-144.06;59.25
11017;BME280;54687;50.800;6.772;2024-01-16T06:44:12;100039.38;;;-144.06;58.86
11017;BME280;54687;50.800;6.772;2024-01-16T06:46:38;100086.00;;;-144.06;58.95
11017;BME280;54687;50.800;6.772;2024-01-16T06:49:05;100069.03;;;-144.06;58.71
11017;BME280;54687;50.800;6.772;2024-01-16T06:51:31;100073.28;;;-144.06;58.89
11017;BME280;54687;50.800;6.772;2024-01-16T06:53:58;100037.25;;;-144.06;58.80
11017;BME280;54687;50.800;6.772;2024-01-16T06:56:25;100115.69;;;-144.06;58.59
11017;BME280;54687;50.800;6.772;2024-01-16T06:58:53;100092.38;;;-144.06;59.23
11017;BME280;54687;50.800;6.772;2024-01-16T07:01:19;100077.53;;;-144.06;58.71
11017;BME280;54687;50.800;6.772;2024-01-16T07:03:46;100086.00;;;-144.06;58.99
11017;BME280;54687;50.800;6.772;2024-01-16T07:06:13;100102.97;;;-144.06;58.74
11017;BME280;54687;50.800;6.772;2024-01-16T07:08:40;100115.69;;;-144.06;58.84
11017;BME280;54687;50.800;6.772;2024-01-16T07:11:06;100111.44;;;-144.06;58.62
11017;BME280;54687;50.800;6.772;2024-01-16T07:13:38;100094.50;;;-144.06;58.08
11017;BME280;54687;50.800;6.772;2024-01-16T07:16:06;100130.53;;;-144.06;58.30
11017;BME280;54687;50.800;6.772;2024-01-16T07:18:32;100126.28;;;-144.06;58.73
11017;BME280;54687;50.800;6.772;2024-01-16T07:20:59;100111.44;;;-144.06;58.59
11017;BME280;54687;50.800;6.772;2024-01-16T07:23:25;100069.03;;;-144.06;58.95
11017;BME280;54687;50.800;6.772;2024-01-16T07:25:52;100086.00;;;-144.06;58.93
11017;BME280;54687;50.800;6.772;2024-01-16T07:28:19;100124.19;;;-144.06;58.66
11017;BME280;54687;50.800;6.772;2024-01-16T07:30:47;99939.72;;;-144.06;58.59
11017;BME280;54687;50.800;6.772;2024-01-16T07:33:15;100094.50;;;-144.06;58.35
11017;BME280;54687;50.800;6.772;2024-01-16T07:35:42;100111.44;;;-144.06;58.59
11017;BME280;54687;50.800;6.772;2024-01-16T07:38:13;100090.25;;;-144.06;58.82
11017;BME280;54687;50.800;6.772;2024-01-16T07:40:39;100081.78;;;-144.06;58.89
11017;BME280;54687;50.800;6.772;2024-01-16T07:43:06;100111.44;;;-144.06;58.74
11017;BME280;54687;50.800;6.772;2024-01-16T07:45:33;100073.28;;;-144.06;58.68
11017;BME280;54687;50.800;6.772;2024-01-16T07:47:59;100149.63;;;-144.06;58.44
11017;BME280;54687;50.800;6.772;2024-01-16T07:50:27;100098.72;;;-144.06;58.26
11017;BME280;54687;50.800;6.772;2024-01-16T07:52:54;100141.13;;;-144.06;58.02
11017;BME280;54687;50.800;6.772;2024-01-16T07:55:20;100134.78;;;-144.06;58.20
11017;BME280;54687;50.800;6.772;2024-01-16T07:57:47;99990.59;;;-144.06;57.73
11017;BME280;54687;50.800;6.772;2024-01-16T08:00:14;100136.91;;;-144.06;57.82
11017;BME280;54687;50.800;6.772;2024-01-16T08:02:41;100145.38;;;-144.06;58.05
11017;BME280;54687;50.800;6.772;2024-01-16T08:05:08;100145.38;;;-144.06;57.62
11017;BME280;54687;50.800;6.772;2024-01-16T08:07:36;100117.81;;;-144.06;57.79
11017;BME280;54687;50.800;6.772;2024-01-16T08:10:03;100153.84;;;-144.06;57.66
11017;BME280;54687;50.800;6.772;2024-01-16T08:12:29;100119.94;;;-144.06;57.85
11017;BME280;54687;50.800;6.772;2024-01-16T08:14:56;100111.44;;;-144.06;57.73
11017;BME280;54687;50.800;6.772;2024-01-16T08:17:22;100122.06;;;-144.06;57.93
11017;BME280;54687;50.800;6.772;2024-01-16T08:19:49;100119.94;;;-144.06;57.66
11017;BME280;54687;50.800;6.772;2024-01-16T08:22:15;100124.19;;;-144.06;57.14
11017;BME280;54687;50.800;6.772;2024-01-16T08:24:43;100081.78;;;-144.06;56.69
11017;BME280;54687;50.800;6.772;2024-01-16T08:27:10;100083.88;;;-144.06;57.04
11017;BME280;54687;50.800;6.772;2024-01-16T08:29:37;100149.63;;;-144.06;57.00
11017;BME280;54687;50.800;6.772;2024-01-16T08:32:04;99984.25;;;-144.06;57.03
11017;BME280;54687;50.800;6.772;2024-01-16T08:34:31;100107.22;;;-144.06;56.64
11017;BME280;54687;50.800;6.772;2024-01-16T08:36:57;100111.44;;;-144.06;56.39
11017;BME280;54687;50.800;6.772;2024-01-16T08:39:25;100090.25;;;-144.06;56.33
11017;BME280;54687;50.800;6.772;2024-01-16T08:41:55;100011.81;;;-144.06;56.13
11017;BME280;54687;50.800;6.772;2024-01-16T08:44:23;100098.72;;;-144.06;56.23
11017;BME280;54687;50.800;6.772;2024-01-16T08:46:49;100105.09;;;-144.06;56.28
11017;BME280;54687;50.800;6.772;2024-01-16T08:49:16;100117.81;;;-144.06;55.77
11017;BME280;54687;50.800;6.772;2024-01-16T08:51:43;100081.78;;;-144.06;55.61
11017;BME280;54687;50.800;6.772;2024-01-16T08:54:09;100069.03;;;-144.06;55.44
11017;BME280;54687;50.800;6.772;2024-01-16T08:56:36;100077.53;;;-144.06;55.23
11017;BME280;54687;50.800;6.772;2024-01-16T08:59:04;100052.09;;;-144.06;55.29
11017;BME280;54687;50.800;6.772;2024-01-16T09:01:30;100066.94;;;-144.06;54.69
11017;BME280;54687;50.800;6.772;2024-01-16T09:03:57;100073.28;;;-144.06;54.28
11017;BME280;54687;50.800;6.772;2024-01-16T09:06:24;100060.56;;;-144.06;54.27
11017;BME280;54687;50.800;6.772;2024-01-16T09:08:50;100030.88;;;-144.06;54.25
11017;BME280;54687;50.800;6.772;2024-01-16T09:11:17;100024.53;;;-144.06;54.68
11017;BME280;54687;50.800;6.772;2024-01-16T09:13:44;100049.97;;;-144.06;53.86
11017;BME280;54687;50.800;6.772;2024-01-16T09:16:12;100056.31;;;-144.06;53.91
11017;BME280;54687;50.800;6.772;2024-01-16T09:18:38;100013.94;;;-144.06;53.71
11017;BME280;54687;50.800;6.772;2024-01-16T09:21:05;100026.66;;;-144.06;53.71
11017;BME280;54687;50.800;6.772;2024-01-16T09:23:32;100030.88;;;-144.06;53.57
11017;BME280;54687;50.800;6.772;2024-01-16T09:25:58;100001.22;;;-144.06;52.30
11017;BME280;54687;50.800;6.772;2024-01-16T09:28:25;99999.09;;;-144.06;53.25
11017;BME280;54687;50.800;6.772;2024-01-16T09:30:54;100030.88;;;-144.06;52.26
11017;BME280;54687;50.800;6.772;2024-01-16T09:33:22;100064.81;;;-144.06;52.22
11017;BME280;54687;50.800;6.772;2024-01-16T09:35:50;100018.16;;;-144.06;52.89
11017;BME280;54687;50.800;6.772;2024-01-16T09:38:17;100007.56;;;-144.06;52.90
11017;BME280;54687;50.800;6.772;2024-01-16T09:40:44;100013.94;;;-144.06;52.58
11017;BME280;54687;50.800;6.772;2024-01-16T09:43:11;100018.16;;;-144.06;53.02
11017;BME280;54687;50.800;6.772;2024-01-16T09:45:38;100028.75;;;-144.06;52.62
11017;BME280;54687;50.800;6.772;2024-01-16T09:48:05;99996.97;;;-144.06;52.19
11017;BME280;54687;50.800;6.772;2024-01-16T09:50:35;99984.25;;;-144.06;52.75
11017;BME280;54687;50.800;6.772;2024-01-16T09:53:02;99990.59;;;-144.06;52.07
11017;BME280;54687;50.800;6.772;2024-01-16T09:55:28;99980.00;;;-144.06;52.20
11017;BME280;54687;50.800;6.772;2024-01-16T09:57:55;99980.00;;;-144.06;51.71
11017;BME280;54687;50.800;6.772;2024-01-16T10:00:24;99969.41;;;-144.06;51.55
11017;BME280;54687;50.800;6.772;2024-01-16T10:02:50;99954.56;;;-144.06;51.95
11017;BME280;54687;50.800;6.772;2024-01-16T10:05:17;99963.03;;;-144.06;51.82
11017;BME280;54687;50.800;6.772;2024-01-16T10:07:45;99948.22;;;-144.06;51.95
11017;BME280;54687;50.800;6.772;2024-01-16T10:10:13;99969.41;;;-144.06;51.93
11017;BME280;54687;50.800;6.772;2024-01-16T10:12:40;99977.88;;;-144.06;51.44
11017;BME280;54687;50.800;6.772;2024-01-16T10:15:08;99941.84;;;-144.06;51.31
11017;BME280;54687;50.800;6.772;2024-01-16T10:17:35;99975.75;;;-144.06;51.85
11017;BME280;54687;50.800;6.772;2024-01-16T10:20:03;99958.81;;;-144.06;51.63
11017;BME280;54687;50.800;6.772;2024-01-16T10:22:31;99963.03;;;-144.06;51.41
11017;BME280;54687;50.800;6.772;2024-01-16T10:25:09;99980.00;;;-144.06;51.90
11017;BME280;54687;50.800;6.772;2024-01-16T10:27:38;99929.13;;;-144.06;50.99
11017;BME280;54687;50.800;6.772;2024-01-16T10:30:06;99958.81;;;-144.06;51.23
11017;BME280;54687;50.800;6.772;2024-01-16T10:32:35;99975.75;;;-144.06;51.06
11017;BME280;54687;50.800;6.772;2024-01-16T10:35:07;99939.72;;;-144.06;51.66
11017;BME280;54687;50.800;6.772;2024-01-16T10:37:44;99927.00;;;-144.06;51.30
11017;BME280;54687;50.800;6.772;2024-01-16T10:40:14;99958.81;;;-144.06;50.99
11017;BME280;54687;50.800;6.772;2024-01-16T10:42:41;99941.84;;;-144.06;50.47
11017;BME280;54687;50.800;6.772;2024-01-16T10:45:08;99946.09;;;-144.06;50.90
11017;BME280;54687;50.800;6.772;2024-01-16T10:47:35;99937.59;;;-144.06;50.22
11017;BME280;54687;50.800;6.772;2024-01-16T10:50:04;99918.53;;;-144.06;50.89
11017;BME280;54687;50.800;6.772;2024-01-16T10:52:33;99874.00;;;-144.06;51.12
11017;BME280;54687;50.800;6.772;2024-01-16T10:55:03;99912.16;;;-144.06;51.04
11017;BME280;54687;50.800;6.772;2024-01-16T10:57:33;99952.44;;;-144.06;51.14
11017;BME280;54687;50.800;6.772;2024-01-16T11:00:03;99878.25;;;-144.06;51.08
11017;BME280;54687;50.800;6.772;2024-01-16T11:02:38;99804.03;;;-144.06;50.59
11017;BME280;54687;50.800;6.772;2024-01-16T11:05:08;99874.00;;;-144.06;50.06
11017;BME280;54687;50.800;6.772;2024-01-16T11:07:37;99869.75;;;-144.06;49.39
11017;BME280;54687;50.800;6.772;2024-01-16T11:10:07;99882.47;;;-144.06;49.68
11017;BME280;54687;50.800;6.772;2024-01-16T11:12:35;99846.44;;;-144.06;49.42
11017;BME280;54687;50.800;6.772;2024-01-16T11:15:05;99852.81;;;-144.06;48.80
11017;BME280;54687;50.800;6.772;2024-01-16T11:17:34;99869.75;;;-144.06;48.17
11017;BME280;54687;50.800;6.772;2024-01-16T11:20:01;99869.75;;;-144.06;48.13
11017;BME280;54687;50.800;6.772;2024-01-16T11:22:31;99874.00;;;-144.06;48.52
11017;BME280;54687;50.800;6.772;2024-01-16T11:25:08;99763.75;;;-144.06;48.78
11017;BME280;54687;50.800;6.772;2024-01-16T11:27:37;99846.44;;;-144.06;47.68
11017;BME280;54687;50.800;6.772;2024-01-16T11:30:05;99825.25;;;-144.06;48.62
11017;BME280;54687;50.800;6.772;2024-01-16T11:32:34;99804.03;;;-144.06;47.90
11017;BME280;54687;50.800;6.772;2024-01-16T11:35:03;99835.84;;;-144.06;47.59
11017;BME280;54687;50.800;6.772;2024-01-16T11:37:30;99787.09;;;-144.06;47.52
11017;BME280;54687;50.800;6.772;2024-01-16T11:40:23;99797.69;;;-144.06;48.18
11017;BME280;54687;50.800;6.772;2024-01-16T11:42:54;99833.72;;;-144.06;47.63
11017;BME280;54687;50.800;6.772;2024-01-16T11:45:50;99831.59;;;-144.06;47.61
11017;BME280;54687;50.800;6.772;2024-01-16T11:48:17;99831.59;;;-144.06;47.53
11017;BME280;54687;50.800;6.772;2024-01-16T11:50:45;99867.66;;;-144.06;46.85
11017;BME280;54687;50.800;6.772;2024-01-16T11:53:33;99852.81;;;-144.06;47.60
11017;BME280;54687;50.800;6.772;2024-01-16T11:56:33;99844.31;;;-144.06;48.54
11017;BME280;54687;50.800;6.772;2024-01-16T11:59:18;99857.03;;;-144.06;48.81
11017;BME280;54687;50.800;6.772;2024-01-16T12:01:57;99852.81;;;-144.06;48.23
11017;BME280;54687;50.800;6.772;2024-01-16T12:04:24;99890.97;;;-144.06;48.30
11017;BME280;54687;50.800;6.772;2024-01-16T12:06:57;99812.53;;;-144.06;48.00
11017;BME280;54687;50.800;6.772;2024-01-16T12:09:25;99857.03;;;-144.06;48.34
11017;BME280;54687;50.800;6.772;2024-01-16T12:11:56;99818.88;;;-144.06;48.19
11017;BME280;54687;50.800;6.772;2024-01-16T12:14:24;99886.72;;;-144.06;48.23
11017;BME280;54687;50.800;6.772;2024-01-16T12:16:51;99882.47;;;-144.06;48.03
11017;BME280;54687;50.800;6.772;2024-01-16T12:19:18;99865.53;;;-144.06;48.46
11017;BME280;54687;50.800;6.772;2024-01-16T12:21:45;99865.53;;;-144.06;48.17
11017;BME280;54687;50.800;6.772;2024-01-16T12:24:12;99874.00;;;-144.06;47.80
11017;BME280;54687;50.800;6.772;2024-01-16T12:26:39;99929.13;;;-144.06;48.44
11017;BME280;54687;50.800;6.772;2024-01-16T12:29:06;99837.97;;;-144.06;47.92
11017;BME280;54687;50.800;6.772;2024-01-16T12:31:34;99914.28;;;-144.06;47.53
11017;BME280;54687;50.800;6.772;2024-01-16T12:34:05;99899.44;;;-144.06;48.17
11017;BME280;54687;50.800;6.772;2024-01-16T12:36:32;99888.84;;;-144.06;48.36